createdAt,value
2022-10-23T00:01:45.325Z,101245.19
2022-10-23T00:04:13.150Z,101244.50
2022-10-23T00:06:37.854Z,101244.88
2022-10-23T00:09:01.943Z,101246.47
2022-10-23T00:11:29.967Z,101244.50
2022-10-23T00:13:57.383Z,101253.09
2022-10-23T00:16:20.966Z,101251.25
2022-10-23T00:18:45.788Z,101250.91
2022-10-23T00:21:12.372Z,101260.59
2022-10-23T00:23:36.086Z,101254.47
2022-10-23T00:26:00.284Z,101259.53
2022-10-23T00:28:25.273Z,101266.34
2022-10-23T00:30:48.846Z,101268.94
2022-10-23T00:33:12.758Z,101267.22
2022-10-23T00:35:36.355Z,101269.13
2022-10-23T00:37:59.949Z,101267.53
2022-10-23T00:40:24.150Z,101274.47
2022-10-23T00:42:47.767Z,101272.38
2022-10-23T00:45:22.258Z,101273.88
2022-10-23T00:47:46.196Z,101276.31
2022-10-23T00:50:10.291Z,101279.50
2022-10-23T00:52:35.142Z,101271.50
2022-10-23T00:54:59.720Z,101266.25
2022-10-23T00:57:23.425Z,101275.88
2022-10-23T00:59:46.971Z,101279.28
2022-10-23T01:02:12.373Z,101278.56
2022-10-23T01:04:37.548Z,101276.75
2022-10-23T01:07:07.288Z,101279.75
2022-10-23T01:09:36.100Z,101277.53
2022-10-23T01:12:08.847Z,101274.53
2022-10-23T01:14:41.862Z,101278.53
2022-10-23T01:17:13.878Z,101281.50
2022-10-23T01:20:02.842Z,101274.91
2022-10-23T01:23:01.784Z,101269.78
2022-10-23T01:25:39.590Z,101277.09
2022-10-23T01:28:12.015Z,101272.13
2022-10-23T01:33:17.621Z,101277.53
2022-10-23T01:35:50.890Z,101282.34
2022-10-23T01:38:19.427Z,101279.34
2022-10-23T01:40:50.187Z,101277.09
2022-10-23T01:43:21.015Z,101277.28
2022-10-23T01:45:50.779Z,101280.16
2022-10-23T01:48:20.834Z,101278.13
2022-10-23T01:50:46.416Z,101277.28
2022-10-23T01:53:10.147Z,101284.44
2022-10-23T01:55:34.969Z,101285.03
2022-10-23T01:58:02.351Z,101282.97
2022-10-23T02:00:34.223Z,101280.41
2022-10-23T02:02:59.851Z,101282.72
2022-10-23T02:05:31.535Z,101281.75
2022-10-23T02:07:56.551Z,101278.91
2022-10-23T02:10:21.874Z,101272.59
2022-10-23T02:12:53.308Z,101272.25
2022-10-23T02:15:26.329Z,101269.81
2022-10-23T02:18:04.034Z,101275.34
2022-10-23T02:20:37.577Z,101282.78
2022-10-23T02:23:11.585Z,101278.44
2022-10-23T02:25:39.955Z,101277.22
2022-10-23T02:28:08.605Z,101272.50
2022-10-23T02:30:43.470Z,101269.31
2022-10-23T02:33:11.714Z,101272.16
2022-10-23T02:35:35.587Z,101266.75
2022-10-23T02:38:32.670Z,101263.81
2022-10-23T02:40:59.662Z,101265.19
2022-10-23T02:43:30.204Z,101260.09
2022-10-23T02:46:02.474Z,101260.91
2022-10-23T02:48:36.019Z,101263.47
2022-10-23T02:51:10.742Z,101266.75
2022-10-23T02:53:44.545Z,101264.59
2022-10-23T02:56:17.059Z,101273.69
2022-10-23T02:58:49.342Z,101273.78
2022-10-23T03:01:18.973Z,101275.22
2022-10-23T03:03:51.759Z,101274.88
2022-10-23T03:06:16.469Z,101270.16
2022-10-23T03:08:45.071Z,101267.84
2022-10-23T03:11:08.618Z,101267.00
2022-10-23T03:13:32.143Z,101262.13
2022-10-23T03:15:55.743Z,101269.78
2022-10-23T03:18:19.242Z,101266.22
2022-10-23T03:20:47.650Z,101269.56
2022-10-23T03:23:14.719Z,101265.44
2022-10-23T03:25:39.370Z,101264.72
2022-10-23T03:28:03.226Z,101266.94
2022-10-23T03:30:31.571Z,101266.75
2022-10-23T03:32:55.518Z,101265.97
2022-10-23T03:35:19.103Z,101264.06
2022-10-23T03:37:44.335Z,101266.69
2022-10-23T03:40:10.592Z,101270.47
2022-10-23T03:42:34.087Z,101280.06
2022-10-23T03:44:57.671Z,101275.31
2022-10-23T03:47:21.366Z,101274.22
2022-10-23T03:49:44.930Z,101272.50
2022-10-23T03:52:09.403Z,101273.75
2022-10-23T03:54:34.901Z,101275.50
2022-10-23T03:56:58.631Z,101283.22
2022-10-23T03:59:23.165Z,101276.13
2022-10-23T04:01:47.463Z,101276.00
2022-10-23T04:04:12.857Z,101290.72
2022-10-23T04:06:40.297Z,101285.84
2022-10-23T04:09:04.605Z,101281.69
2022-10-23T04:11:30.235Z,101279.22
2022-10-23T04:13:53.828Z,101273.75
2022-10-23T04:16:17.695Z,101278.28
2022-10-23T04:18:42.780Z,101273.03
2022-10-23T04:21:07.347Z,101279.63
2022-10-23T04:23:31.175Z,101274.38
2022-10-23T04:25:58.193Z,101279.13
2022-10-23T04:28:24.108Z,101281.97
2022-10-23T04:30:47.630Z,101280.34
2022-10-23T04:33:11.162Z,101272.91
2022-10-23T04:35:34.763Z,101279.84
2022-10-23T04:37:58.315Z,101271.91
2022-10-23T04:40:21.858Z,101269.81
2022-10-23T04:42:46.957Z,101267.47
2022-10-23T04:45:12.815Z,101267.97
2022-10-23T04:47:38.203Z,101262.59
2022-10-23T04:50:02.014Z,101272.34
2022-10-23T04:52:44.065Z,101270.41
2022-10-23T04:55:27.909Z,101268.28
2022-10-23T04:58:24.738Z,101276.91
2022-10-23T05:00:50.371Z,101280.19
2022-10-23T05:03:22.363Z,101277.75
2022-10-23T05:05:46.882Z,101276.38
2022-10-23T05:08:39.466Z,101275.06
2022-10-23T05:11:19.615Z,101267.63
2022-10-23T05:13:45.687Z,101278.00
2022-10-23T05:16:10.652Z,101280.41
2022-10-23T05:18:40.364Z,101279.00
2022-10-23T05:21:14.199Z,101280.94
2022-10-23T05:23:39.551Z,101273.13
2022-10-23T05:26:03.774Z,101273.97
2022-10-23T05:28:28.747Z,101272.38
2022-10-23T05:30:52.728Z,101277.63
2022-10-23T05:33:22.368Z,101274.44
2022-10-23T05:35:46.857Z,101282.00
2022-10-23T05:38:14.714Z,101270.28
2022-10-23T05:43:12.654Z,101279.63
2022-10-23T05:45:45.979Z,101269.34
2022-10-23T05:48:35.255Z,101277.41
2022-10-23T05:51:23.608Z,101285.56
2022-10-23T05:54:08.987Z,101288.25
2022-10-23T05:56:42.646Z,101288.56
2022-10-23T05:59:20.473Z,101287.22
2022-10-23T06:01:46.821Z,101291.25
2022-10-23T06:04:16.571Z,101285.50
2022-10-23T06:07:02.077Z,101290.09
2022-10-23T06:09:25.724Z,101278.63
2022-10-23T06:11:53.604Z,101283.97
2022-10-23T06:14:19.499Z,101288.72
2022-10-23T06:16:44.159Z,101281.75
2022-10-23T06:19:11.599Z,101277.97
2022-10-23T06:21:40.188Z,101277.25
2022-10-23T06:24:07.690Z,101286.28
2022-10-23T06:26:39.155Z,101284.44
2022-10-23T06:29:08.448Z,101279.06
2022-10-23T06:31:32.923Z,101278.84
2022-10-23T06:33:56.879Z,101277.13
2022-10-23T06:36:20.509Z,101271.97
2022-10-23T06:38:46.360Z,101278.63
2022-10-23T06:41:16.532Z,101274.22
2022-10-23T06:43:42.683Z,101269.72
2022-10-23T06:46:26.806Z,101281.53
2022-10-23T06:49:08.574Z,101280.00
2022-10-23T06:51:42.718Z,101289.22
2022-10-23T06:54:12.651Z,101287.28
2022-10-23T06:56:44.916Z,101284.44
2022-10-23T06:59:08.963Z,101288.38
2022-10-23T07:01:33.782Z,101294.03
2022-10-23T07:03:57.616Z,101297.63
2022-10-23T07:06:23.136Z,101294.84
2022-10-23T07:08:47.240Z,101296.34
2022-10-23T07:11:30.395Z,101291.72
2022-10-23T07:13:55.597Z,101286.22
2022-10-23T07:16:21.506Z,101290.56
2022-10-23T07:18:46.304Z,101285.81
2022-10-23T07:21:24.957Z,101281.19
2022-10-23T07:23:51.970Z,101292.38
2022-10-23T07:26:17.763Z,101297.41
2022-10-23T07:28:44.342Z,101295.59
2022-10-23T07:31:08.811Z,101288.78
2022-10-23T07:33:53.260Z,101292.97
2022-10-23T07:36:18.643Z,101292.00
2022-10-23T07:38:42.319Z,101289.41
2022-10-23T07:41:08.967Z,101285.03
2022-10-23T07:43:35.963Z,101297.38
2022-10-23T07:46:01.383Z,101295.50
2022-10-23T07:48:31.038Z,101291.69
2022-10-23T07:51:01.918Z,101287.38
2022-10-23T07:53:27.688Z,101280.00
2022-10-23T07:55:58.226Z,101286.13
2022-10-23T07:58:25.443Z,101285.94
2022-10-23T08:01:06.184Z,101295.44
2022-10-23T08:03:34.887Z,101283.66
2022-10-23T08:06:00.503Z,101277.84
2022-10-23T08:08:25.304Z,101278.91
2022-10-23T08:10:54.963Z,101280.88
2022-10-23T08:13:24.779Z,101283.69
2022-10-23T08:15:54.311Z,101280.38
2022-10-23T08:18:37.818Z,101276.06
2022-10-23T08:21:05.034Z,101277.41
2022-10-23T08:23:30.438Z,101270.28
2022-10-23T08:26:00.304Z,101274.41
2022-10-23T08:28:26.415Z,101273.81
2022-10-23T08:30:52.466Z,101273.63
2022-10-23T08:33:16.054Z,101281.66
2022-10-23T08:35:42.201Z,101276.06
2022-10-23T08:38:06.264Z,101274.13
2022-10-23T08:40:37.412Z,101271.25
2022-10-23T08:43:26.087Z,101271.25
2022-10-23T08:46:08.673Z,101271.03
2022-10-23T08:49:22.453Z,101273.28
2022-10-23T08:51:56.799Z,101274.84
2022-10-23T08:54:24.151Z,101275.38
2022-10-23T08:56:53.686Z,101275.19
2022-10-23T08:59:26.275Z,101269.56
2022-10-23T09:01:57.484Z,101263.91
2022-10-23T09:04:21.460Z,101271.31
2022-10-23T09:06:56.077Z,101262.84
2022-10-23T09:09:39.621Z,101262.53
2022-10-23T09:12:09.082Z,101268.50
2022-10-23T09:15:10.532Z,101256.84
2022-10-23T09:17:38.007Z,101258.09
2022-10-23T09:20:15.272Z,101261.63
2022-10-23T09:22:41.187Z,101252.63
2022-10-23T09:25:05.087Z,101256.84
2022-10-23T09:27:28.683Z,101257.84
2022-10-23T09:29:54.851Z,101250.56
2022-10-23T09:32:19.477Z,101249.44
2022-10-23T09:34:54.403Z,101245.38
2022-10-23T09:37:26.766Z,101254.34
2022-10-23T09:40:03.284Z,101259.97
2022-10-23T09:42:27.740Z,101254.19
2022-10-23T09:44:54.096Z,101246.09
2022-10-23T09:47:21.438Z,101253.88
2022-10-23T09:49:51.897Z,101251.94
2022-10-23T09:52:27.375Z,101246.16
2022-10-23T09:54:56.847Z,101245.06
2022-10-23T09:57:28.538Z,101245.00
2022-10-23T09:59:53.631Z,101247.97
2022-10-23T10:02:28.161Z,101256.38
2022-10-23T10:05:25.434Z,101235.78
2022-10-23T10:08:00.099Z,101247.03
2022-10-23T10:10:25.489Z,101232.34
2022-10-23T10:12:53.126Z,101234.81
2022-10-23T10:15:26.844Z,101230.84
2022-10-23T10:18:04.314Z,101234.66
2022-10-23T10:20:50.094Z,101228.91
2022-10-23T10:23:24.448Z,101229.63
2022-10-23T10:26:00.703Z,101229.59
2022-10-23T10:28:35.964Z,101223.44
2022-10-23T10:31:11.055Z,101227.81
2022-10-23T10:33:44.017Z,101220.63
2022-10-23T10:36:23.848Z,101201.78
2022-10-23T10:38:52.120Z,101203.94
2022-10-23T10:41:43.028Z,101198.31
2022-10-23T10:44:46.306Z,101203.44
2022-10-23T10:47:21.094Z,101201.31
2022-10-23T10:49:57.082Z,101193.88
2022-10-23T10:52:48.983Z,101194.81
2022-10-23T10:55:20.072Z,101191.25
2022-10-23T10:57:49.080Z,101179.88
2022-10-23T11:00:17.714Z,101194.38
2022-10-23T11:02:47.347Z,101186.84
2022-10-23T11:05:28.986Z,101187.31
2022-10-23T11:08:00.334Z,101180.53
2022-10-23T11:10:24.287Z,101181.50
2022-10-23T11:12:50.402Z,101176.28
2022-10-23T11:15:16.786Z,101165.84
2022-10-23T11:17:45.913Z,101162.34
2022-10-23T11:20:26.591Z,101162.25
2022-10-23T11:22:58.894Z,101161.97
2022-10-23T11:25:55.658Z,101149.03
2022-10-23T11:28:39.555Z,101145.63
2022-10-23T11:31:19.962Z,101134.56
2022-10-23T11:34:27.749Z,101142.06
2022-10-23T11:36:54.685Z,101136.38
2022-10-23T11:39:23.799Z,101133.31
2022-10-23T11:41:53.623Z,101128.34
2022-10-23T11:44:45.578Z,101134.63
2022-10-23T11:47:38.026Z,101123.84
2022-10-23T11:50:25.866Z,101122.97
2022-10-23T11:53:13.613Z,101115.53
2022-10-23T11:55:42.128Z,101106.19
2022-10-23T11:58:31.966Z,101099.91
2022-10-23T12:01:05.562Z,101093.91
2022-10-23T12:03:40.713Z,101088.72
2022-10-23T12:06:07.115Z,101084.44
2022-10-23T12:08:37.170Z,101084.84
2022-10-23T12:11:00.886Z,101092.47
2022-10-23T12:13:45.292Z,101087.09
2022-10-23T12:16:10.495Z,101084.66
2022-10-23T12:18:34.095Z,101083.59
2022-10-23T12:21:00.613Z,101077.19
2022-10-23T12:23:45.791Z,101079.66
2022-10-23T12:26:42.936Z,101066.13
2022-10-23T12:29:25.574Z,101067.81
2022-10-23T12:31:59.022Z,101067.56
2022-10-23T12:34:36.143Z,101061.63
2022-10-23T12:37:42.354Z,101066.75
2022-10-23T12:40:10.501Z,101062.94
2022-10-23T12:42:34.187Z,101062.66
2022-10-23T12:45:02.382Z,101055.09
2022-10-23T12:47:27.807Z,101057.41
2022-10-23T12:49:52.837Z,101055.44
2022-10-23T12:52:18.941Z,101052.91
2022-10-23T12:54:42.683Z,101039.03
2022-10-23T12:57:22.251Z,101034.53
2022-10-23T12:59:46.022Z,101029.63
2022-10-23T13:02:23.646Z,101031.69
2022-10-23T13:04:50.375Z,101024.44
2022-10-23T13:07:14.145Z,101021.88
2022-10-23T13:09:42.565Z,101020.03
2022-10-23T13:12:24.483Z,101005.38
2022-10-23T13:15:03.211Z,101010.28
2022-10-23T13:17:37.741Z,100999.28
2022-10-23T13:20:23.640Z,100999.34
2022-10-23T13:22:50.109Z,100992.50
2022-10-23T13:25:26.161Z,100991.28
2022-10-23T13:27:49.818Z,100987.16
2022-10-23T13:30:30.147Z,100986.66
2022-10-23T13:32:53.709Z,100980.94
2022-10-23T13:35:24.595Z,100978.88
2022-10-23T13:37:48.387Z,100984.41
2022-10-23T13:40:25.036Z,100983.94
2022-10-23T13:42:50.307Z,100984.41
2022-10-23T13:45:21.068Z,100977.72
2022-10-23T13:47:45.298Z,100972.41
2022-10-23T13:50:11.326Z,100971.78
2022-10-23T13:52:36.287Z,100972.91
2022-10-23T13:54:59.898Z,100977.25
2022-10-23T13:57:23.510Z,100963.22
2022-10-23T13:59:47.125Z,100966.66
2022-10-23T14:02:21.061Z,100964.41
2022-10-23T14:04:44.778Z,100961.97
2022-10-23T14:07:08.309Z,100965.84
2022-10-23T14:09:33.271Z,100961.56
2022-10-23T14:11:56.843Z,100954.84
2022-10-23T14:14:20.376Z,100961.41
2022-10-23T14:16:43.874Z,100956.94
2022-10-23T14:19:07.994Z,100958.31
2022-10-23T14:21:31.507Z,100965.38
2022-10-23T14:23:55.614Z,100961.47
2022-10-23T14:26:23.872Z,100956.41
2022-10-23T14:28:47.549Z,100958.06
2022-10-23T14:31:13.885Z,100952.63
2022-10-23T14:33:37.547Z,100946.09
2022-10-23T14:36:01.281Z,100941.03
2022-10-23T14:38:25.051Z,100943.16
2022-10-23T14:40:48.609Z,100940.19
2022-10-23T14:43:13.568Z,100937.63
2022-10-23T14:45:37.537Z,100932.50
2022-10-23T14:48:02.592Z,100930.75
2022-10-23T14:50:26.114Z,100927.56
2022-10-23T14:52:49.745Z,100935.44
2022-10-23T14:55:13.307Z,100932.25
2022-10-23T14:57:37.559Z,100929.34
2022-10-23T15:00:02.481Z,100914.66
2022-10-23T15:02:26.078Z,100921.16
2022-10-23T15:04:49.589Z,100928.72
2022-10-23T15:07:13.174Z,100926.03
2022-10-23T15:09:36.724Z,100924.25
2022-10-23T15:12:00.387Z,100919.13
2022-10-23T15:14:23.879Z,100911.56
2022-10-23T15:16:48.831Z,100904.63
2022-10-23T15:19:18.431Z,100901.28
2022-10-23T15:21:42.503Z,100902.47
2022-10-23T15:24:06.615Z,100904.50
2022-10-23T15:26:30.266Z,100899.31
2022-10-23T15:28:56.403Z,100893.50
2022-10-23T15:31:46.427Z,100886.63
2022-10-23T15:34:14.120Z,100886.97
2022-10-23T15:36:37.803Z,100882.09
2022-10-23T15:39:02.166Z,100878.03
2022-10-23T15:41:30.974Z,100872.44
2022-10-23T15:43:54.579Z,100870.88
2022-10-23T15:46:18.080Z,100876.97
2022-10-23T15:48:42.693Z,100874.13
2022-10-23T15:51:07.866Z,100869.84
2022-10-23T15:53:31.551Z,100866.50
2022-10-23T15:55:55.930Z,100864.81
2022-10-23T15:58:19.490Z,100864.78
2022-10-23T16:00:43.023Z,100865.00
2022-10-23T16:03:06.671Z,100864.13
2022-10-23T16:05:30.201Z,100861.06
2022-10-23T16:07:55.187Z,100866.31
2022-10-23T16:10:18.960Z,100864.13
2022-10-23T16:12:42.890Z,100851.91
2022-10-23T16:15:09.181Z,100853.09
2022-10-23T16:17:32.765Z,100854.63
2022-10-23T16:19:56.319Z,100844.94
2022-10-23T16:22:19.887Z,100849.00
2022-10-23T16:24:44.943Z,100845.94
2022-10-23T16:27:08.898Z,100850.53
2022-10-23T16:29:32.463Z,100857.81
2022-10-23T16:31:57.561Z,100846.63
2022-10-23T16:34:21.404Z,100837.78
2022-10-23T16:36:45.161Z,100832.88
2022-10-23T16:39:39.201Z,100827.59
2022-10-23T16:42:40.480Z,100823.38
2022-10-23T16:45:12.006Z,100821.47
2022-10-23T16:47:36.312Z,100824.56
2022-10-23T16:50:00.631Z,100821.16
2022-10-23T16:52:24.362Z,100811.66
2022-10-23T16:54:47.909Z,100811.78
2022-10-23T16:57:11.497Z,100809.44
2022-10-23T16:59:37.049Z,100803.00
2022-10-23T17:02:00.706Z,100802.81
2022-10-23T17:04:24.340Z,100796.19
2022-10-23T17:06:47.942Z,100788.03
2022-10-23T17:09:11.450Z,100798.22
2022-10-23T17:11:38.163Z,100797.69
2022-10-23T17:14:04.932Z,100790.72
2022-10-23T17:16:34.499Z,100784.94
2022-10-23T17:18:58.731Z,100787.84
2022-10-23T17:21:23.532Z,100783.47
2022-10-23T17:23:47.475Z,100784.72
2022-10-23T17:26:14.894Z,100772.25
2022-10-23T17:28:41.640Z,100759.19
2022-10-23T17:31:05.274Z,100762.41
2022-10-23T17:33:30.259Z,100759.03
2022-10-23T17:35:54.568Z,100753.25
2022-10-23T17:38:19.182Z,100763.25
2022-10-23T17:40:42.793Z,100756.81
2022-10-23T17:43:06.385Z,100766.16
2022-10-23T17:45:30.034Z,100754.78
2022-10-23T17:47:53.697Z,100754.78
2022-10-23T17:50:19.557Z,100752.41
2022-10-23T17:52:43.478Z,100746.28
2022-10-23T17:55:08.918Z,100752.25
2022-10-23T17:57:32.560Z,100750.03
2022-10-23T17:59:56.142Z,100751.25
2022-10-23T18:02:19.849Z,100757.66
2022-10-23T18:04:43.563Z,100759.06
2022-10-23T18:07:08.567Z,100731.03
2022-10-23T18:09:32.082Z,100731.91
2022-10-23T18:11:55.636Z,100725.28
2022-10-23T18:14:20.450Z,100735.78
2022-10-23T18:16:45.862Z,100734.44
2022-10-23T18:19:10.086Z,100730.50
2022-10-23T18:21:34.823Z,100730.00
2022-10-23T18:24:02.128Z,100724.59
2022-10-23T18:26:28.645Z,100724.94
2022-10-23T18:28:55.605Z,100723.22
2022-10-23T18:31:21.244Z,100716.78
2022-10-23T18:33:45.137Z,100705.91
2022-10-23T18:36:16.122Z,100702.47
2022-10-23T18:38:40.179Z,100709.25
2022-10-23T18:41:05.087Z,100713.16
2022-10-23T18:43:42.556Z,100721.28
2022-10-23T18:46:07.961Z,100715.22
2022-10-23T18:48:31.713Z,100709.94
2022-10-23T18:50:55.287Z,100707.19
2022-10-23T18:53:18.856Z,100702.44
2022-10-23T18:55:49.246Z,100705.66
2022-10-23T18:58:14.443Z,100697.69
2022-10-23T19:00:38.018Z,100691.56
2022-10-23T19:03:01.602Z,100700.41
2022-10-23T19:05:25.119Z,100709.72
2022-10-23T19:07:50.341Z,100701.88
2022-10-23T19:10:17.966Z,100702.03
2022-10-23T19:12:41.835Z,100703.22
2022-10-23T19:15:08.271Z,100692.59
2022-10-23T19:17:34.216Z,100690.72
2022-10-23T19:20:02.509Z,100691.88
2022-10-23T19:22:26.079Z,100689.50
2022-10-23T19:24:53.680Z,100688.16
2022-10-23T19:27:17.247Z,100684.94
2022-10-23T19:29:44.762Z,100691.88
2022-10-23T19:32:10.346Z,100683.91
2022-10-23T19:34:34.131Z,100671.72
2022-10-23T19:36:57.791Z,100661.88
2022-10-23T19:39:21.307Z,100664.56
2022-10-23T19:41:44.966Z,100671.00
2022-10-23T19:44:08.531Z,100660.03
2022-10-23T19:46:32.144Z,100654.41
2022-10-23T19:48:57.099Z,100651.41
2022-10-23T19:51:20.762Z,100650.69
2022-10-23T19:53:44.364Z,100658.78
2022-10-23T19:56:10.072Z,100658.53
2022-10-23T19:58:33.839Z,100652.13
2022-10-23T20:00:57.703Z,100661.50
2022-10-23T20:03:21.281Z,100668.09
2022-10-23T20:05:47.455Z,100673.88
2022-10-23T20:08:11.847Z,100666.75
2022-10-23T20:10:35.410Z,100676.38
2022-10-23T20:13:18.194Z,100663.41
2022-10-23T20:15:42.801Z,100664.34
2022-10-23T20:18:06.996Z,100673.50
2022-10-23T20:20:30.615Z,100673.84
2022-10-23T20:22:56.100Z,100670.78
2022-10-23T20:25:20.131Z,100671.97
2022-10-23T20:27:43.641Z,100665.31
2022-10-23T20:30:08.735Z,100659.13
2022-10-23T20:32:32.300Z,100666.72
2022-10-23T20:34:56.023Z,100669.44
2022-10-23T20:37:19.574Z,100660.56
2022-10-23T20:39:44.558Z,100655.81
2022-10-23T20:42:08.619Z,100648.50
2022-10-23T20:44:32.670Z,100649.69
2022-10-23T20:46:56.863Z,100657.72
2022-10-23T20:49:21.086Z,100648.34
2022-10-23T20:51:45.223Z,100643.22
2022-10-23T20:54:08.878Z,100639.88
2022-10-23T20:56:36.122Z,100641.16
2022-10-23T20:59:00.624Z,100645.34
2022-10-23T21:01:26.339Z,100640.16
2022-10-23T21:03:52.198Z,100633.75
2022-10-23T21:06:18.159Z,100633.63
2022-10-23T21:08:42.758Z,100632.41
2022-10-23T21:11:08.026Z,100614.97
2022-10-23T21:13:33.341Z,100624.16
2022-10-23T21:15:57.237Z,100612.88
2022-10-23T21:18:34.123Z,100618.88
2022-10-23T21:21:05.632Z,100615.88
2022-10-23T21:23:30.771Z,100625.06
2022-10-23T21:25:54.317Z,100625.06
2022-10-23T21:28:17.800Z,100625.88
2022-10-23T21:30:42.727Z,100638.19
2022-10-23T21:33:07.019Z,100644.94
2022-10-23T21:35:30.903Z,100656.22
2022-10-23T21:37:54.419Z,100654.38
2022-10-23T21:40:18.247Z,100657.66
2022-10-23T21:42:41.755Z,100656.72
2022-10-23T21:45:06.540Z,100653.22
2022-10-23T21:47:31.481Z,100648.25
2022-10-23T21:49:55.054Z,100674.84
2022-10-23T21:52:19.802Z,100673.50
2022-10-23T21:54:43.571Z,100660.22
2022-10-23T21:57:13.829Z,100672.19
2022-10-23T21:59:37.457Z,100675.13
2022-10-23T22:02:01.298Z,100675.22
2022-10-23T22:04:26.333Z,100665.03
2022-10-23T22:06:51.076Z,100659.75
2022-10-23T22:09:18.931Z,100646.16
2022-10-23T22:11:43.055Z,100644.69
2022-10-23T22:14:06.671Z,100660.88
2022-10-23T22:16:30.389Z,100659.09
2022-10-23T22:18:54.386Z,100660.03
2022-10-23T22:21:22.501Z,100647.88
2022-10-23T22:23:49.200Z,100663.75
2022-10-23T22:26:23.893Z,100665.03
2022-10-23T22:28:47.455Z,100669.06
2022-10-23T22:31:16.582Z,100685.16
2022-10-23T22:33:40.175Z,100679.16
2022-10-23T22:36:04.876Z,100673.72
2022-10-23T22:38:31.943Z,100681.50
2022-10-23T22:40:55.481Z,100678.47
2022-10-23T22:43:19.084Z,100673.31
2022-10-23T22:45:42.704Z,100681.81
2022-10-23T22:48:08.448Z,100680.78
2022-10-23T22:50:31.970Z,100681.25
2022-10-23T22:52:55.521Z,100679.25
2022-10-23T22:55:20.457Z,100687.72
2022-10-23T22:57:44.260Z,100684.09
2022-10-23T23:00:09.747Z,100682.47
2022-10-23T23:02:33.291Z,100673.78
2022-10-23T23:04:56.820Z,100679.34
2022-10-23T23:07:20.441Z,100674.00
2022-10-23T23:09:46.286Z,100670.16
2022-10-23T23:12:14.820Z,100672.63
2022-10-23T23:14:38.754Z,100656.53
2022-10-23T23:17:02.411Z,100654.75
2022-10-23T23:19:26.692Z,100651.28
2022-10-23T23:21:50.325Z,100655.75
2022-10-23T23:24:13.890Z,100644.38
2022-10-23T23:26:37.487Z,100641.94
2022-10-23T23:29:02.486Z,100640.00
2022-10-23T23:31:27.630Z,100634.88
2022-10-23T23:33:51.683Z,100628.59
2022-10-23T23:36:19.359Z,100631.34
2022-10-23T23:38:42.850Z,100630.72
2022-10-23T23:41:07.823Z,100622.94
2022-10-23T23:43:31.589Z,100617.53
2022-10-23T23:45:56.607Z,100613.34
2022-10-23T23:48:20.114Z,100616.59
2022-10-23T23:50:43.755Z,100626.06
2022-10-23T23:53:07.292Z,100623.13
2022-10-23T23:55:30.940Z,100630.59
2022-10-23T23:57:54.503Z,100626.03
